Time;durP1;ratioP1;P1;durP2;ratioP2;P2;SDS_P1;SDS_P2;PMS_P1;PMS_P2;Temp;Humidity;BMP_temperature;BMP_pressure;BME280_temperature;BME280_humidity;BME280_pressure;Samples;Min_cycle;Max_cycle;Signal;HPM_P1;HPM_P2
2022/07/18 00:01:16;;;;;;;17.40;11.50;;;;;;;20.65;97.11;101008.84;1738439;80;21027;-75
2022/07/18 00:03:44;;;;;;;17.10;11.43;;;;;;;20.41;97.92;101013.20;1735332;82;21093;-75
2022/07/18 00:06:11;;;;;;;15.80;11.85;;;;;;;20.31;98.55;101010.95;1726129;82;21098;-75
2022/07/18 00:08:38;;;;;;;15.38;11.10;;;;;;;20.42;98.51;101014.06;1729860;80;21043;-75
2022/07/18 00:11:05;;;;;;;17.87;12.20;;;;;;;20.39;98.81;101010.36;1750031;80;21610;-76
2022/07/18 00:13:33;;;;;;;17.92;12.40;;;;;;;20.31;99.27;101012.73;1731424;80;21066;-75
2022/07/18 00:16:01;;;;;;;19.45;12.75;;;;;;;20.04;100.00;101016.52;1741718;81;21031;-74
2022/07/18 00:18:32;;;;;;;19.10;12.18;;;;;;;19.89;100.00;101017.67;1741088;81;21035;-75
2022/07/18 00:21:00;;;;;;;21.75;12.68;;;;;;;20.04;100.00;101022.23;1712494;82;21082;-74
2022/07/18 00:23:27;;;;;;;20.02;12.20;;;;;;;20.00;100.00;101025.06;1716303;80;21059;-74
2022/07/18 00:25:55;;;;;;;17.60;11.53;;;;;;;20.41;99.76;101018.92;1728897;81;21042;-75
2022/07/18 00:28:22;;;;;;;19.57;12.60;;;;;;;20.38;98.59;101018.69;1715571;81;21051;-74
2022/07/18 00:30:50;;;;;;;16.77;11.45;;;;;;;20.45;98.03;101022.96;1744331;81;21583;-74
2022/07/18 00:33:17;;;;;;;16.75;10.55;;;;;;;20.19;99.28;101021.05;1740877;80;21011;-74
2022/07/18 00:35:45;;;;;;;16.85;10.93;;;;;;;20.41;98.57;101020.23;1724737;81;21054;-75
2022/07/18 00:38:12;;;;;;;16.50;10.65;;;;;;;20.40;98.12;101017.27;1732905;81;21539;-76
2022/07/18 00:40:40;;;;;;;15.90;8.85;;;;;;;20.40;98.00;101019.89;1734273;80;21039;-74
2022/07/18 00:43:07;;;;;;;12.90;8.30;;;;;;;20.29;97.35;101018.56;1717010;82;21091;-75
2022/07/18 00:45:34;;;;;;;8.18;5.83;;;;;;;20.53;96.16;101021.06;1719070;80;21102;-75
2022/07/18 00:48:08;;;;;;;7.00;5.80;;;;;;;20.45;94.87;101024.27;1733800;81;21018;-75
2022/07/18 00:50:35;;;;;;;5.90;4.15;;;;;;;20.53;92.63;101019.76;1729223;80;21438;-75
2022/07/18 00:53:04;;;;;;;7.28;5.10;;;;;;;20.61;90.63;101022.63;1717718;80;21464;-75
2022/07/18 00:55:33;;;;;;;6.55;5.00;;;;;;;20.75;90.66;101015.02;1713462;83;21130;-76
2022/07/18 00:58:00;;;;;;;7.78;4.30;;;;;;;20.81;88.74;101027.13;1713211;82;21082;-76
2022/07/18 01:03:13;;;;;;;5.37;3.33;;;;;;;20.63;87.38;101031.67;1725166;82;21059;-74
2022/07/18 01:05:41;;;;;;;6.53;3.08;;;;;;;20.71;86.24;101043.20;1714558;80;21134;-73
2022/07/18 01:08:08;;;;;;;4.87;2.60;;;;;;;20.63;83.92;101038.22;1744065;81;21011;-76
2022/07/18 01:10:36;;;;;;;6.03;2.98;;;;;;;20.78;82.94;101040.92;1736150;82;21087;-75
2022/07/18 01:13:03;;;;;;;2.80;2.33;;;;;;;20.64;81.47;101044.64;1713397;82;21075;-73
2022/07/18 01:15:31;;;;;;;4.03;2.75;;;;;;;20.83;80.10;101040.09;1731758;80;21051;-74
2022/07/18 01:17:58;;;;;;;4.05;1.92;;;;;;;21.01;78.78;101039.94;1721337;81;21015;-74
2022/07/18 01:20:28;;;;;;;4.37;2.10;;;;;;;20.94;77.07;101041.37;1732000;80;21082;-75
2022/07/18 01:22:58;;;;;;;2.47;1.90;;;;;;;20.98;77.09;101041.48;1725555;81;21019;-76
2022/07/18 01:25:25;;;;;;;2.05;1.60;;;;;;;20.98;76.47;101042.79;1734038;81;21045;-74
2022/07/18 01:27:52;;;;;;;1.72;1.50;;;;;;;21.32;74.73;101049.25;1712755;82;21076;-75
2022/07/18 01:30:20;;;;;;;1.90;1.65;;;;;;;21.26;74.27;101043.20;1718825;80;21050;-75
2022/07/18 01:32:50;;;;;;;3.05;1.70;;;;;;;21.43;74.19;101046.27;1720779;80;21008;-75
2022/07/18 01:35:17;;;;;;;3.87;2.10;;;;;;;21.49;74.04;101040.53;1723422;80;21080;-74
2022/07/18 01:37:45;;;;;;;2.25;1.75;;;;;;;21.45;74.82;101046.98;1714296;82;21027;-76
2022/07/18 01:40:13;;;;;;;2.83;1.90;;;;;;;21.04;73.92;101049.81;1736565;81;21046;-75
2022/07/18 01:42:40;;;;;;;4.20;1.90;;;;;;;21.18;75.24;101048.23;1732513;82;22659;-76
2022/07/18 01:45:08;;;;;;;3.98;2.17;;;;;;;21.06;75.09;101047.91;1724632;82;21047;-75
2022/07/18 01:47:37;;;;;;;6.45;2.60;;;;;;;20.94;76.15;101047.91;1713881;80;21561;-74
2022/07/18 01:50:08;;;;;;;3.37;2.42;;;;;;;20.68;77.56;101045.21;1722958;81;21059;-74
2022/07/18 01:52:37;;;;;;;3.08;2.30;;;;;;;20.44;78.27;101046.16;1720029;80;21065;-74
2022/07/18 01:55:07;;;;;;;3.45;2.35;;;;;;;20.73;77.11;101049.14;1727558;80;21110;-75
2022/07/18 01:57:35;;;;;;;3.85;2.00;;;;;;;20.72;77.02;101047.95;1726454;80;21070;-75
2022/07/18 02:00:05;;;;;;;1.98;1.47;;;;;;;20.64;75.91;101051.64;1727524;82;21032;-76
2022/07/18 02:02:34;;;;;;;2.35;1.32;;;;;;;20.18;74.92;101048.97;1736458;80;21046;-76
2022/07/18 02:05:02;;;;;;;4.03;1.50;;;;;;;20.60;73.64;101047.14;1743905;80;21099;-76
2022/07/18 02:07:36;;;;;;;2.90;1.40;;;;;;;21.04;72.29;101044.09;1723677;82;21039;-75
2022/07/18 02:10:12;;;;;;;1.77;1.47;;;;;;;20.87;72.08;101040.69;1735760;82;21519;-76
2022/07/18 02:12:39;;;;;;;2.60;1.90;;;;;;;20.86;72.26;101053.41;1721611;82;21027;-75
2022/07/18 02:15:10;;;;;;;1.92;1.72;;;;;;;21.01;73.10;101051.72;1750558;82;21531;-76
2022/07/18 02:17:38;;;;;;;2.37;1.70;;;;;;;20.70;73.63;101058.55;1746218;81;21122;-75
2022/07/18 02:20:09;;;;;;;2.45;1.87;;;;;;;20.78;74.06;101052.24;1717939;80;21035;-74
2022/07/18 02:22:36;;;;;;;4.47;2.33;;;;;;;20.94;75.03;101054.94;1729748;81;21086;-75
2022/07/18 02:25:07;;;;;;;3.22;1.70;;;;;;;21.34;73.02;101056.99;1713064;80;21055;-75
2022/07/18 02:27:34;;;;;;;2.62;1.72;;;;;;;21.33;72.87;101065.33;1741084;82;21031;-75
2022/07/18 02:30:01;;;;;;;3.70;1.85;;;;;;;21.19;73.07;101061.20;1750188;80;21594;-76
2022/07/18 02:32:32;;;;;;;4.28;2.33;;;;;;;21.07;73.44;101058.75;1743024;80;21050;-75
2022/07/18 02:34:59;;;;;;;4.30;1.82;;;;;;;21.10;73.58;101067.64;1712388;82;21629;-77
2022/07/18 02:37:27;;;;;;;3.67;1.87;;;;;;;21.00;73.71;101061.84;1722298;81;21031;-75
2022/07/18 02:39:54;;;;;;;4.45;2.00;;;;;;;20.94;74.24;101067.54;1731465;80;21015;-75
2022/07/18 02:42:22;;;;;;;6.30;2.00;;;;;;;20.92;74.06;101069.93;1716326;80;21035;-76
2022/07/18 02:44:49;;;;;;;3.92;1.90;;;;;;;21.05;73.81;101068.50;1715312;82;21072;-75
2022/07/18 02:47:16;;;;;;;3.72;1.82;;;;;;;21.17;73.72;101068.34;1740213;81;21062;-75
2022/07/18 02:49:43;;;;;;;3.98;2.15;;;;;;;21.06;74.03;101066.23;1743087;80;21019;-75
2022/07/18 02:52:10;;;;;;;4.67;2.08;;;;;;;21.10;73.86;101066.34;1721976;80;21079;-75
2022/07/18 02:54:39;;;;;;;4.67;2.15;;;;;;;21.17;73.92;101071.45;1718840;81;21047;-75
2022/07/18 02:57:07;;;;;;;3.05;2.00;;;;;;;21.17;73.99;101077.52;1720236;81;21095;-75
2022/07/18 02:59:35;;;;;;;3.33;2.17;;;;;;;21.29;74.10;101070.47;1732861;81;21000;-75
2022/07/18 03:02:04;;;;;;;3.77;2.10;;;;;;;21.37;73.36;101082.92;1725442;80;21054;-75
2022/07/18 03:04:32;;;;;;;3.20;2.00;;;;;;;21.45;73.41;101083.64;1719117;82;21087;-75
2022/07/18 03:07:00;;;;;;;5.12;2.00;;;;;;;21.44;73.65;101080.20;1735022;80;21049;-76
2022/07/18 03:09:27;;;;;;;2.77;1.75;;;;;;;21.46;73.63;101085.33;1720680;80;21090;-74
2022/07/18 03:11:57;;;;;;;3.27;1.90;;;;;;;21.52;73.98;101079.59;1732420;82;21067;-75
2022/07/18 03:14:25;;;;;;;4.78;1.92;;;;;;;21.59;72.98;101080.73;1712996;80;21024;-74
2022/07/18 03:16:52;;;;;;;4.28;1.92;;;;;;;21.72;72.74;101083.20;1725108;80;21035;-74
2022/07/18 03:19:21;;;;;;;2.92;1.85;;;;;;;21.87;72.05;101075.37;1715174;82;21023;-75
2022/07/18 03:21:50;;;;;;;1.77;1.60;;;;;;;21.95;72.18;101073.43;1725865;80;21007;-75
2022/07/18 03:24:17;;;;;;;3.90;1.62;;;;;;;21.99;71.13;101076.97;1738643;82;21047;-73
2022/07/18 03:26:44;;;;;;;1.75;1.42;;;;;;;22.05;71.27;101074.80;1731938;80;21531;-74
2022/07/18 03:29:12;;;;;;;3.45;1.82;;;;;;;22.14;71.25;101076.19;1748334;82;21102;-74
2022/07/18 03:31:40;;;;;;;3.37;1.60;;;;;;;22.17;71.04;101077.22;1740169;80;21051;-75
2022/07/18 03:34:08;;;;;;;4.15;1.60;;;;;;;22.31;70.66;101078.72;1730575;81;21052;-74
2022/07/18 03:36:36;;;;;;;2.33;1.60;;;;;;;22.36;70.61;101080.94;1720668;82;21012;-75
2022/07/18 03:39:05;;;;;;;2.55;1.60;;;;;;;22.38;70.16;101079.88;1726102;82;21571;-74
2022/07/18 03:41:32;;;;;;;1.82;1.50;;;;;;;22.39;70.49;101076.76;1719260;82;21552;-73
2022/07/18 03:44:00;;;;;;;2.25;1.50;;;;;;;21.90;72.05;101082.17;1717257;80;21007;-74
2022/07/18 03:46:28;;;;;;;2.67;1.70;;;;;;;21.94;72.15;101079.64;1713391;82;21096;-74
2022/07/18 03:48:56;;;;;;;4.40;1.60;;;;;;;21.81;73.02;101081.12;1746423;80;21074;-73
2022/07/18 03:51:23;;;;;;;1.42;1.32;;;;;;;22.01;72.37;101079.47;1731698;80;21071;-75
2022/07/18 03:53:50;;;;;;;1.80;1.37;;;;;;;22.06;72.17;101083.86;1733065;80;21107;-75
2022/07/18 03:56:18;;;;;;;2.65;1.37;;;;;;;22.06;71.86;101089.56;1741008;80;21031;-74
2022/07/18 03:58:45;;;;;;;1.70;1.35;;;;;;;22.29;71.72;101088.50;1712990;83;21046;-73
2022/07/18 04:01:12;;;;;;;2.27;1.37;;;;;;;22.32;70.14;101087.41;1714465;80;21039;-74
2022/07/18 04:03:39;;;;;;;3.15;1.50;;;;;;;22.35;69.99;101089.30;1733770;80;21079;-74
2022/07/18 04:06:06;;;;;;;1.57;1.40;;;;;;;22.61;69.33;101088.88;1722561;82;21055;-73
2022/07/18 04:08:33;;;;;;;1.85;1.27;;;;;;;22.47;68.70;101102.34;1732157;80;21535;-73
2022/07/18 04:11:01;;;;;;;3.83;1.50;;;;;;;22.52;68.66;101094.41;1748546;82;21554;-74
2022/07/18 04:13:28;;;;;;;1.50;1.37;;;;;;;22.29;68.26;101095.55;1718204;81;21098;-74
2022/07/18 04:15:55;;;;;;;1.35;1.17;;;;;;;22.68;68.55;101097.05;1712922;82;21039;-73
2022/07/18 04:18:24;;;;;;;1.70;1.40;;;;;;;22.49;67.47;101103.88;1737221;81;21086;-75
2022/07/18 04:20:51;;;;;;;1.50;1.40;;;;;;;22.65;67.70;101096.84;1722753;80;21087;-73
2022/07/18 04:23:18;;;;;;;1.92;1.52;;;;;;;22.66;67.88;101097.66;1738918;81;21177;-74
2022/07/18 04:25:46;;;;;;;1.70;1.52;;;;;;;22.75;68.01;101100.33;1718767;81;21182;-74
2022/07/18 04:28:14;;;;;;;1.90;1.60;;;;;;;22.87;67.69;101101.52;1714253;80;21055;-74
2022/07/18 04:30:43;;;;;;;2.35;1.60;;;;;;;22.96;68.15;101101.56;1737847;80;21117;-74
2022/07/18 04:33:11;;;;;;;2.00;1.67;;;;;;;23.00;68.24;101096.39;1715482;82;21071;-73
2022/07/18 04:35:41;;;;;;;3.62;1.70;;;;;;;22.88;68.57;101107.14;1735164;80;21099;-74
2022/07/18 04:38:10;;;;;;;2.35;1.60;;;;;;;23.05;67.67;101102.57;1732077;80;21109;-74
2022/07/18 04:40:38;;;;;;;1.95;1.60;;;;;;;23.49;67.10;101108.33;1717493;81;21094;-73
2022/07/18 04:43:05;;;;;;;3.00;1.70;;;;;;;22.67;68.26;101106.72;1736996;80;21142;-74
2022/07/18 04:45:34;;;;;;;3.20;1.87;;;;;;;23.23;67.63;101103.25;1715230;80;21043;-72
2022/07/18 04:48:04;;;;;;;4.28;1.87;;;;;;;23.03;68.03;101104.50;1746028;81;21511;-74
2022/07/18 04:50:31;;;;;;;2.08;1.70;;;;;;;23.03;68.33;101102.37;1714694;80;21042;-74
2022/07/18 04:52:59;;;;;;;3.00;1.72;;;;;;;22.91;68.48;101109.02;1706939;80;21046;-73
2022/07/18 04:55:28;;;;;;;2.30;1.60;;;;;;;22.98;67.94;101100.94;1717679;81;21075;-75
2022/07/18 04:57:56;;;;;;;4.35;1.55;;;;;;;22.88;68.06;101099.27;1744748;81;21000;-75
2022/07/18 05:00:26;;;;;;;4.30;1.50;;;;;;;23.26;67.89;101097.73;1731805;82;21163;-72
2022/07/18 05:02:56;;;;;;;2.40;1.80;;;;;;;23.43;67.44;101104.11;1724362;80;21130;-73
2022/07/18 05:05:26;;;;;;;6.12;1.85;;;;;;;23.59;67.19;101099.96;1725888;82;21522;-75
2022/07/18 05:07:54;;;;;;;2.85;1.70;;;;;;;23.70;67.24;101108.67;1739671;80;21043;-73
2022/07/18 05:10:23;;;;;;;4.60;2.05;;;;;;;23.66;66.52;101103.35;1713519;81;21118;-74
2022/07/18 05:12:54;;;;;;;2.58;1.50;;;;;;;23.39;66.05;101104.37;1722052;80;21015;-74
2022/07/18 05:15:23;;;;;;;2.12;1.80;;;;;;;23.59;65.57;101100.45;1711756;83;21003;-73
2022/07/18 05:17:53;;;;;;;2.00;1.72;;;;;;;23.72;64.72;101102.80;1712355;83;21055;-74
2022/07/18 05:20:25;;;;;;;1.55;1.45;;;;;;;23.76;64.88;101119.48;1714221;83;21502;-73
2022/07/18 05:22:54;;;;;;;2.55;1.72;;;;;;;23.88;64.54;101110.98;1729006;82;21028;-74
2022/07/18 05:25:22;;;;;;;2.15;1.95;;;;;;;23.67;63.41;101110.28;1768913;80;21054;-74
2022/07/18 05:27:51;;;;;;;2.72;1.62;;;;;;;24.26;63.23;101107.95;1712995;83;21083;-75
2022/07/18 05:30:19;;;;;;;3.60;1.80;;;;;;;24.35;63.29;101116.32;1746133;81;21011;-74
2022/07/18 05:32:47;;;;;;;4.35;1.70;;;;;;;24.13;62.64;101121.91;1767982;80;21012;-73
2022/07/18 05:35:15;;;;;;;3.33;1.90;;;;;;;24.33;62.81;101118.27;1743981;80;20998;-75
2022/07/18 05:37:43;;;;;;;5.25;1.50;;;;;;;24.06;62.96;101121.63;1773008;80;21074;-74
2022/07/18 05:40:14;;;;;;;4.78;2.02;;;;;;;23.96;61.93;101112.42;1762167;80;21532;-73
2022/07/18 05:42:41;;;;;;;2.12;1.60;;;;;;;24.08;63.11;101121.00;1753783;80;21073;-74
2022/07/18 05:45:10;;;;;;;2.05;1.80;;;;;;;24.45;63.47;101108.37;1765537;80;21031;-74
2022/07/18 05:47:38;;;;;;;3.52;1.80;;;;;;;24.35;61.69;101118.95;1760025;80;21043;-75
2022/07/18 05:50:08;;;;;;;2.37;1.70;;;;;;;24.11;62.01;101114.16;1764433;80;21542;-73
2022/07/18 05:52:37;;;;;;;2.37;1.70;;;;;;;24.02;62.59;101122.88;1751099;80;21051;-73
2022/07/18 05:55:07;;;;;;;3.52;1.80;;;;;;;24.10;62.49;101120.37;1766889;80;21622;-75
2022/07/18 05:57:40;;;;;;;2.55;1.90;;;;;;;24.32;63.12;101115.27;1763735;80;21468;-74
2022/07/18 06:00:08;;;;;;;3.45;1.87;;;;;;;24.57;63.24;101109.06;1755945;80;21060;-74
2022/07/18 06:02:39;;;;;;;1.40;1.30;;;;;;;24.57;63.23;101103.33;1774091;80;21539;-74
2022/07/18 06:05:09;;;;;;;1.70;1.40;;;;;;;24.55;60.94;101109.23;1777499;80;21062;-75
2022/07/18 06:07:38;;;;;;;4.30;1.55;;;;;;;24.53;60.61;101118.22;1767328;80;21015;-74
2022/07/18 06:10:06;;;;;;;2.58;1.50;;;;;;;24.32;60.83;101107.87;1758883;80;21074;-74
2022/07/18 06:12:35;;;;;;;3.25;1.60;;;;;;;24.63;61.26;101110.30;1723507;81;21027;-75
2022/07/18 06:15:04;;;;;;;1.90;1.60;;;;;;;24.92;60.23;101107.52;1770825;80;21492;-75
2022/07/18 06:17:32;;;;;;;3.37;1.50;;;;;;;24.84;61.13;101109.59;1777798;80;21472;-74
2022/07/18 06:19:59;;;;;;;3.10;1.87;;;;;;;24.81;60.69;101116.45;1775034;80;21039;-75
2022/07/18 06:22:27;;;;;;;2.17;1.50;;;;;;;24.97;60.84;101108.73;1761931;80;21055;-75
2022/07/18 06:24:55;;;;;;;2.95;1.50;;;;;;;25.18;59.89;101111.13;1774790;80;21042;-74
2022/07/18 06:27:23;;;;;;;1.67;1.57;;;;;;;25.14;59.97;101106.28;1766218;80;21044;-74
2022/07/18 06:29:50;;;;;;;2.55;1.50;;;;;;;25.11;59.06;101109.23;1770060;80;21023;-74
2022/07/18 06:32:17;;;;;;;2.62;1.35;;;;;;;24.78;59.38;101107.54;1769564;80;21233;-75
2022/07/18 06:35:05;;;;;;;2.58;1.50;;;;;;;25.03;59.49;101109.14;1760611;80;21523;-73
2022/07/18 06:37:33;;;;;;;2.22;1.50;;;;;;;25.17;58.76;101102.88;1753151;80;21506;-75
2022/07/18 06:40:01;;;;;;;1.65;1.40;;;;;;;25.44;59.38;101104.32;1766663;80;21193;-74
2022/07/18 06:42:28;;;;;;;1.65;1.52;;;;;;;25.08;58.42;101116.09;1765237;80;21081;-76
2022/07/18 06:44:55;;;;;;;1.70;1.60;;;;;;;25.25;58.37;101107.94;1775281;80;21090;-76
2022/07/18 06:47:23;;;;;;;2.12;1.37;;;;;;;25.37;58.61;101108.88;1756732;80;21543;-74
2022/07/18 06:49:50;;;;;;;3.08;1.67;;;;;;;25.54;58.02;101111.66;1752002;80;21468;-72
2022/07/18 06:52:18;;;;;;;3.92;1.50;;;;;;;25.38;57.72;101106.59;1762882;80;21028;-76
2022/07/18 06:54:46;;;;;;;1.60;1.50;;;;;;;25.28;57.97;101119.48;1757293;80;21031;-74
2022/07/18 06:57:13;;;;;;;1.50;1.40;;;;;;;25.39;57.88;101114.83;1765105;80;21058;-75
2022/07/18 06:59:40;;;;;;;1.50;1.40;;;;;;;25.31;57.96;101111.29;1763297;80;21068;-75
2022/07/18 07:02:08;;;;;;;1.30;1.20;;;;;;;25.82;55.55;101109.77;1773669;80;20999;-74
2022/07/18 07:04:36;;;;;;;1.40;1.30;;;;;;;25.55;56.80;101102.79;1755632;80;21051;-75
2022/07/18 07:07:05;;;;;;;3.72;1.22;;;;;;;26.07;54.80;101113.44;1759203;80;20992;-76
2022/07/18 07:09:33;;;;;;;1.27;1.10;;;;;;;25.64;54.84;101110.27;1757536;80;21035;-76
2022/07/18 07:12:00;;;;;;;1.42;1.20;;;;;;;26.18;53.18;101111.05;1755804;80;21046;-74
2022/07/18 07:14:28;;;;;;;5.67;1.30;;;;;;;25.75;54.39;101127.16;1776909;80;21067;-75
2022/07/18 07:16:55;;;;;;;6.80;1.47;;;;;;;26.23;54.30;101125.91;1752001;80;21528;-75
2022/07/18 07:19:22;;;;;;;2.50;1.30;;;;;;;26.07;53.94;101112.11;1773772;80;21074;-75
2022/07/18 07:21:49;;;;;;;2.02;1.30;;;;;;;26.35;54.39;101117.25;1761804;80;21054;-75
2022/07/18 07:24:19;;;;;;;1.12;1.07;;;;;;;25.82;53.98;101122.13;1764828;80;21050;-75
2022/07/18 07:26:46;;;;;;;2.70;1.30;;;;;;;26.10;50.84;101133.43;1756148;80;21107;-74
2022/07/18 07:29:14;;;;;;;2.50;1.30;;;;;;;25.62;53.66;101120.14;1753254;80;21082;-75
2022/07/18 07:31:43;;;;;;;2.00;1.30;;;;;;;25.99;53.42;101121.29;1764879;80;21102;-75
2022/07/18 07:34:10;;;;;;;1.82;1.22;;;;;;;25.73;53.58;101119.42;1762108;80;21095;-74
2022/07/18 07:36:37;;;;;;;3.33;1.20;;;;;;;26.24;54.02;101118.82;1775820;80;21033;-73
2022/07/18 07:39:04;;;;;;;2.65;1.27;;;;;;;26.14;53.88;101129.00;1755120;80;21086;-74
2022/07/18 07:41:33;;;;;;;2.05;1.00;;;;;;;25.92;52.64;101140.05;1757885;80;21073;-75
2022/07/18 07:44:01;;;;;;;1.05;1.05;;;;;;;25.82;52.73;101127.41;1757370;80;21004;-74
2022/07/18 07:46:28;;;;;;;1.27;1.17;;;;;;;26.14;52.29;101134.28;1762612;80;21057;-75
2022/07/18 07:48:56;;;;;;;2.02;1.10;;;;;;;26.18;51.97;101139.59;1778063;80;21043;-75
2022/07/18 07:51:23;;;;;;;1.37;1.02;;;;;;;26.38;50.00;101138.89;1752771;80;21518;-75
2022/07/18 07:53:50;;;;;;;1.87;1.05;;;;;;;26.51;50.59;101138.96;1768179;80;21039;-74
2022/07/18 07:56:19;;;;;;;2.05;1.00;;;;;;;26.91;51.33;101129.11;1766052;80;21126;-75
2022/07/18 07:58:47;;;;;;;2.50;1.20;;;;;;;26.82;50.59;101131.38;1771142;80;21063;-74
2022/07/18 08:01:17;;;;;;;1.12;1.10;;;;;;;26.94;50.88;101145.13;1773238;80;21054;-74
2022/07/18 08:03:46;;;;;;;1.52;1.10;;;;;;;26.96;48.81;101148.44;1752085;80;21538;-74
2022/07/18 08:06:12;;;;;;;1.20;1.10;;;;;;;26.84;48.60;101129.41;1761601;80;21056;-73
2022/07/18 08:08:41;;;;;;;1.27;1.17;;;;;;;27.08;49.16;101129.98;1771010;80;21059;-74
2022/07/18 08:11:08;;;;;;;1.70;1.22;;;;;;;27.24;49.64;101129.73;1755763;80;21054;-74
2022/07/18 08:13:36;;;;;;;1.52;1.22;;;;;;;27.08;48.34;101134.45;1766481;80;21032;-74
2022/07/18 08:16:04;;;;;;;2.67;1.20;;;;;;;27.10;48.62;101139.08;1762140;80;21062;-74
2022/07/18 08:18:32;;;;;;;4.58;1.50;;;;;;;26.72;49.10;101135.95;1759885;80;21059;-74
2022/07/18 08:20:59;;;;;;;2.55;1.20;;;;;;;26.94;48.66;101132.73;1756360;80;21507;-74
2022/07/18 08:23:26;;;;;;;3.45;1.22;;;;;;;26.55;48.41;101132.38;1775814;80;21577;-75
2022/07/18 08:25:54;;;;;;;3.25;1.40;;;;;;;26.96;48.92;101131.27;1763735;80;21090;-75
2022/07/18 08:28:23;;;;;;;3.25;1.20;;;;;;;27.20;48.26;101122.59;1765976;80;21157;-75
2022/07/18 08:30:51;;;;;;;1.75;1.27;;;;;;;27.29;48.00;101122.98;1761840;80;21106;-74
2022/07/18 08:33:19;;;;;;;1.32;1.10;;;;;;;27.37;47.84;101126.11;1761210;80;21149;-74
2022/07/18 08:35:46;;;;;;;2.22;0.90;;;;;;;27.92;47.88;101117.59;1759557;80;21091;-74
2022/07/18 08:38:13;;;;;;;1.20;1.10;;;;;;;27.71;47.73;101119.38;1770332;80;21023;-75
2022/07/18 08:40:42;;;;;;;2.08;1.20;;;;;;;27.17;48.77;101117.64;1762773;80;21039;-75
2022/07/18 08:43:09;;;;;;;1.00;0.98;;;;;;;27.31;48.81;101131.58;1759216;80;21078;-73
2022/07/18 08:45:37;;;;;;;1.62;1.15;;;;;;;27.89;47.20;101132.97;1759372;80;21150;-74
2022/07/18 08:48:05;;;;;;;0.93;0.93;;;;;;;27.72;46.89;101130.30;1758936;80;21012;-73
2022/07/18 08:50:33;;;;;;;1.32;1.05;;;;;;;27.16;46.35;101133.16;1770504;80;21063;-74
2022/07/18 08:53:01;;;;;;;1.92;1.12;;;;;;;27.69;45.82;101125.32;1764138;80;21043;-73
2022/07/18 08:55:28;;;;;;;1.00;0.95;;;;;;;28.04;46.40;101130.00;1763068;80;21121;-75
2022/07/18 08:57:57;;;;;;;2.15;1.05;;;;;;;27.94;45.44;101138.58;1755847;80;21052;-73
2022/07/18 09:00:24;;;;;;;2.62;1.00;;;;;;;27.52;45.04;101140.36;1776053;80;21196;-74
2022/07/18 09:03:00;;;;;;;5.20;1.00;;;;;;;27.43;45.50;101143.97;1752621;80;21570;-73
2022/07/18 09:05:29;;;;;;;2.17;1.00;;;;;;;28.45;45.01;101129.09;1765116;80;21564;-73
2022/07/18 09:08:16;;;;;;;2.55;1.20;;;;;;;27.51;43.91;101141.84;1759512;80;21089;-73
2022/07/18 09:10:54;;;;;;;1.98;1.00;;;;;;;27.90;45.24;101133.28;1759547;80;21078;-75
2022/07/18 09:13:38;;;;;;;1.42;1.20;;;;;;;28.06;45.94;101135.95;1760084;80;21084;-73
2022/07/18 09:16:10;;;;;;;0.95;0.95;;;;;;;28.58;45.94;101148.45;1763997;80;21042;-71
2022/07/18 09:18:45;;;;;;;2.12;1.10;;;;;;;28.81;45.12;101145.36;1753395;80;21090;-70
2022/07/18 09:21:22;;;;;;;1.35;1.02;;;;;;;28.98;44.01;101149.30;1759467;80;21059;-71
2022/07/18 09:23:52;;;;;;;2.25;1.07;;;;;;;28.79;44.02;101142.56;1756786;80;21102;-73
2022/07/18 09:26:45;;;;;;;2.10;1.40;;;;;;;28.29;44.86;101151.14;1738693;80;21031;-74
2022/07/18 09:29:17;;;;;;;1.35;1.07;;;;;;;28.63;45.11;101128.87;1780829;80;21087;-75
2022/07/18 09:31:51;;;;;;;1.95;0.90;;;;;;;28.15;45.38;101133.61;1761461;80;20989;-74
2022/07/18 09:34:35;;;;;;;1.65;0.98;;;;;;;28.01;44.78;101140.08;1759221;80;21067;-71
2022/07/18 09:37:04;;;;;;;3.92;1.10;;;;;;;27.80;45.65;101138.73;1769524;80;21043;-75
2022/07/18 09:39:31;;;;;;;3.45;1.20;;;;;;;28.15;46.45;101145.52;1753419;80;21028;-75
2022/07/18 09:42:15;;;;;;;3.27;1.20;;;;;;;27.75;45.15;101147.15;1755529;80;21111;-74
2022/07/18 09:44:42;;;;;;;3.35;1.22;;;;;;;27.72;44.99;101147.49;1763995;80;21055;-72
2022/07/18 09:47:09;;;;;;;1.00;1.00;;;;;;;28.05;44.78;101142.22;1771609;80;21070;-71
2022/07/18 09:49:40;;;;;;;3.83;1.40;;;;;;;28.11;44.57;101141.55;1774663;80;21078;-73
2022/07/18 09:52:10;;;;;;;3.40;1.20;;;;;;;28.23;44.45;101142.54;1770262;80;21535;-73
2022/07/18 09:54:43;;;;;;;1.55;1.20;;;;;;;28.39;45.16;101150.45;1760790;80;21345;-74
2022/07/18 09:57:27;;;;;;;3.80;1.30;;;;;;;28.51;45.04;101147.80;1758708;80;21060;-73
2022/07/18 09:59:54;;;;;;;1.67;1.20;;;;;;;27.98;44.70;101146.52;1770833;80;21094;-73
2022/07/18 10:02:41;;;;;;;3.98;1.20;;;;;;;28.00;43.99;101149.00;1776694;80;21503;-73
2022/07/18 10:05:10;;;;;;;1.42;1.20;;;;;;;28.17;44.81;101155.44;1735801;80;21031;-74
2022/07/18 10:07:37;;;;;;;4.05;1.40;;;;;;;28.50;44.69;101154.08;1725843;82;21039;-73
2022/07/18 10:10:06;;;;;;;1.70;1.40;;;;;;;28.21;46.84;101147.17;1727757;82;21062;-73
2022/07/18 10:12:33;;;;;;;3.90;1.65;;;;;;;28.64;45.73;101150.41;1751998;80;21167;-73
2022/07/18 10:15:01;;;;;;;2.08;1.20;;;;;;;27.88;45.12;101161.73;1748497;80;21508;-73
2022/07/18 10:17:30;;;;;;;2.00;1.30;;;;;;;28.06;45.67;101155.80;1769139;81;21057;-72
2022/07/18 10:20:07;;;;;;;1.50;1.40;;;;;;;28.21;45.92;101155.12;1761968;81;21057;-72
2022/07/18 10:22:44;;;;;;;2.35;1.50;;;;;;;28.51;45.13;101146.48;1758000;80;21128;-73
2022/07/18 10:25:12;;;;;;;4.40;1.35;;;;;;;28.62;45.47;101148.43;1766638;80;21029;-72
2022/07/18 10:27:56;;;;;;;3.25;1.10;;;;;;;28.83;45.41;101158.45;1752140;80;21039;-71
2022/07/18 10:30:44;;;;;;;2.17;1.30;;;;;;;28.12;44.13;101166.19;1757729;80;21019;-74
2022/07/18 10:33:45;;;;;;;2.92;1.27;;;;;;;28.23;44.91;101159.75;1736345;80;21031;-72
2022/07/18 10:36:19;;;;;;;1.67;1.42;;;;;;;28.71;43.42;101154.86;1764680;80;21092;-71
2022/07/18 10:39:19;;;;;;;2.40;1.27;;;;;;;28.73;44.49;101152.02;1732878;80;21114;-72
2022/07/18 10:41:54;;;;;;;2.20;1.50;;;;;;;28.71;44.78;101146.91;1737791;80;21050;-73
2022/07/18 10:44:32;;;;;;;1.87;1.30;;;;;;;28.35;44.58;101155.75;1737858;80;21532;-74
2022/07/18 10:47:19;;;;;;;2.58;1.60;;;;;;;28.35;44.58;101155.75;1740301;80;21030;-73
2022/07/18 10:49:58;;;;;;;4.05;1.20;;;;;;;27.84;45.59;101149.80;1776689;79;21073;-74
2022/07/18 10:52:36;;;;;;;1.42;1.32;;;;;;;27.84;45.59;101149.80;1740046;80;21048;-73
2022/07/18 10:55:18;;;;;;;2.17;1.25;;;;;;;28.17;45.18;101145.36;1766570;79;21132;-72
2022/07/18 10:57:54;;;;;;;3.80;1.47;;;;;;;28.31;45.53;101153.11;1746996;80;21558;-73
2022/07/18 11:00:28;;;;;;;2.90;1.52;;;;;;;28.69;43.72;101133.02;1769434;79;21095;-74
2022/07/18 11:03:11;;;;;;;2.42;1.30;;;;;;;28.70;44.46;101150.55;1771696;80;21557;-74
2022/07/18 11:05:53;;;;;;;2.22;1.32;;;;;;;28.83;44.76;101134.59;1742548;80;21158;-72
2022/07/18 11:08:24;;;;;;;1.50;1.40;;;;;;;28.83;44.76;101134.59;1765659;79;21011;-73
2022/07/18 11:11:01;;;;;;;4.55;1.45;;;;;;;28.77;45.27;101145.37;1761060;79;22068;-74
2022/07/18 11:13:31;;;;;;;4.72;1.60;;;;;;;28.85;45.42;101151.15;1739669;81;21121;-73
2022/07/18 11:16:24;;;;;;;2.45;1.30;;;;;;;28.66;44.58;101137.82;1758396;80;21094;-73
2022/07/18 11:18:57;;;;;;;2.10;1.40;;;;;;;28.73;44.32;101145.39;1747742;81;21081;-74
2022/07/18 11:21:33;;;;;;;4.37;1.40;;;;;;;28.67;44.46;101152.70;1769943;81;20974;-73
2022/07/18 11:24:09;;;;;;;2.37;1.50;;;;;;;29.59;44.17;101150.27;1774765;80;21049;-73
2022/07/18 11:26:41;;;;;;;2.25;1.60;;;;;;;29.35;43.50;101148.09;1775043;80;21061;-73
2022/07/18 11:29:12;;;;;;;1.92;1.47;;;;;;;28.48;45.08;101161.34;1735215;81;21086;-73
2022/07/18 11:31:55;;;;;;;2.85;1.40;;;;;;;28.42;44.10;101154.07;1751229;80;21037;-72
2022/07/18 11:34:46;;;;;;;1.95;1.40;;;;;;;28.70;42.70;101149.73;1744173;81;21080;-73
2022/07/18 11:37:13;;;;;;;1.67;1.57;;;;;;;29.41;42.14;101145.25;1773905;80;21021;-73
2022/07/18 11:39:41;;;;;;;1.95;1.70;;;;;;;29.07;44.08;101151.70;1748269;81;21055;-74